Attleboro, Massachusetts
Current Conditions -  °F | °C
As of 8:55 AM on Monday 20 Oct 2014 (Local Time) from KSFZ Reporting Station
Clear Clear  
Wind Chill:   Ceiling: Unl
Heat Index:   Visibility: 10mi
Dew Point: -4°   Wind: 3mph
Humidity: 60%   Direction: 220°SW
Pressure: 30.07"   Gusts: NA
Location:  41.95°N, 71.28°W
Report Text: KSFZ 201255Z 22003KT 10SM CLR 03/M04 A3007 RMK AO1
Loading
Personal Weather Stations






























Interactive Weather Map
Tropical Storm Tracking
New forecast layout! Learn more

10-Day Weather Forecast

Advertisements
Track Severe Weather on mobile